createdAt,value
2018-06-08T00:01:57.759Z,29.10
2018-06-08T00:04:25.338Z,25.50
2018-06-08T00:06:52.692Z,27.07
2018-06-08T00:09:19.983Z,28.03
2018-06-08T00:11:47.253Z,28.07
2018-06-08T00:14:14.599Z,29.50
2018-06-08T00:16:42.152Z,27.53
2018-06-08T00:19:09.414Z,28.33
2018-06-08T00:21:36.726Z,27.73
2018-06-08T00:24:04.020Z,26.40
2018-06-08T00:26:31.325Z,29.00
2018-06-08T00:28:58.605Z,27.77
2018-06-08T00:31:25.947Z,29.40
2018-06-08T00:33:53.273Z,28.60
2018-06-08T00:36:20.544Z,32.03
2018-06-08T00:38:47.842Z,30.87
2018-06-08T00:41:15.111Z,32.60
2018-06-08T00:43:42.452Z,28.37
2018-06-08T00:46:09.747Z,28.67
2018-06-08T00:48:37.106Z,28.67
2018-06-08T00:51:04.495Z,25.27
2018-06-08T00:53:31.773Z,24.37
2018-06-08T00:55:59.167Z,22.90
2018-06-08T00:58:26.420Z,22.60
2018-06-08T01:00:53.753Z,20.97
2018-06-08T01:03:21.032Z,21.57
2018-06-08T01:05:48.414Z,26.07
2018-06-08T01:08:15.747Z,22.63
2018-06-08T01:10:43.095Z,21.80
2018-06-08T01:13:12.126Z,23.40
2018-06-08T01:15:39.833Z,23.07
2018-06-08T01:18:07.203Z,22.53
2018-06-08T01:20:34.484Z,20.93
2018-06-08T01:23:01.758Z,21.80
2018-06-08T01:25:29.057Z,22.13
2018-06-08T01:27:56.427Z,20.00
2018-06-08T01:30:23.749Z,20.97
2018-06-08T01:32:51.021Z,18.97
2018-06-08T01:35:18.275Z,18.87
2018-06-08T01:37:45.585Z,21.40
2018-06-08T01:40:12.884Z,20.07
2018-06-08T01:42:40.180Z,19.33
2018-06-08T01:45:07.526Z,20.40
2018-06-08T01:47:34.883Z,19.73
2018-06-08T01:50:02.221Z,20.47
2018-06-08T01:52:29.544Z,18.27
2018-06-08T01:54:56.824Z,20.70
2018-06-08T01:57:24.133Z,20.57
2018-06-08T01:59:51.415Z,17.90
2018-06-08T02:02:18.695Z,19.30
2018-06-08T02:04:46.021Z,18.83
2018-06-08T02:07:13.281Z,19.03
2018-06-08T02:09:40.569Z,19.33
2018-06-08T02:12:07.843Z,19.47
2018-06-08T02:14:35.220Z,20.70
2018-06-08T02:17:02.490Z,20.77
2018-06-08T02:19:29.756Z,23.23
2018-06-08T02:21:57.048Z,22.33
2018-06-08T02:24:24.440Z,24.73
2018-06-08T02:26:51.713Z,27.57
2018-06-08T02:29:18.965Z,28.80
2018-06-08T02:31:46.252Z,29.67
2018-06-08T02:34:13.558Z,26.33
2018-06-08T02:36:40.856Z,27.03
2018-06-08T02:39:08.117Z,27.83
2018-06-08T02:41:35.719Z,27.23
2018-06-08T02:44:03.293Z,33.50
2018-06-08T02:46:30.651Z,35.53
2018-06-08T02:48:58.035Z,33.43
2018-06-08T02:51:25.317Z,35.67
2018-06-08T02:53:52.706Z,33.73
2018-06-08T02:56:19.982Z,32.40
2018-06-08T02:58:47.272Z,31.57
2018-06-08T03:01:14.710Z,30.30
2018-06-08T03:03:41.961Z,31.63
2018-06-08T03:06:09.247Z,34.83
2018-06-08T03:08:36.525Z,34.07
2018-06-08T03:11:03.769Z,35.17
2018-06-08T03:13:31.014Z,32.77
2018-06-08T03:15:58.286Z,34.73
2018-06-08T03:18:25.606Z,32.30
2018-06-08T03:20:53.433Z,33.77
2018-06-08T03:23:20.772Z,33.00
2018-06-08T03:25:48.027Z,33.67
2018-06-08T03:28:15.298Z,32.70
2018-06-08T03:30:42.583Z,33.83
2018-06-08T03:33:09.837Z,32.17
2018-06-08T03:38:50.612Z,30.50
2018-06-08T03:41:17.890Z,32.40
2018-06-08T03:43:45.179Z,35.67
2018-06-08T03:46:12.465Z,37.50
2018-06-08T03:48:39.868Z,34.23
2018-06-08T03:51:07.744Z,37.10
2018-06-08T03:53:37.242Z,36.70
2018-06-08T03:56:17.959Z,32.80
2018-06-08T03:58:57.014Z,34.97
2018-06-08T04:01:24.606Z,32.93
2018-06-08T04:03:51.932Z,36.30
2018-06-08T04:06:19.609Z,33.53
2018-06-08T04:09:50.053Z,35.90
2018-06-08T04:12:18.172Z,33.13
2018-06-08T04:14:45.498Z,35.07
2018-06-08T04:17:12.797Z,33.37
2018-06-08T04:19:40.059Z,31.50
2018-06-08T04:22:07.344Z,34.37
2018-06-08T04:24:34.649Z,34.87
2018-06-08T04:27:02.038Z,31.07
2018-06-08T04:29:29.418Z,27.90
2018-06-08T04:31:56.726Z,28.07
2018-06-08T04:34:24.046Z,26.33
2018-06-08T04:36:51.363Z,31.03
2018-06-08T04:39:18.605Z,29.47
2018-06-08T04:41:45.887Z,26.47
2018-06-08T04:44:13.223Z,28.33
2018-06-08T04:46:40.497Z,32.37
2018-06-08T04:49:07.756Z,25.40
2018-06-08T04:51:35.081Z,24.27
2018-06-08T04:54:02.458Z,25.73
2018-06-08T04:56:29.745Z,25.30
2018-06-08T04:58:57.063Z,26.50
2018-06-08T05:01:24.457Z,27.10
2018-06-08T05:03:51.779Z,29.37
2018-06-08T05:06:19.175Z,28.27
2018-06-08T05:08:47.097Z,35.63
2018-06-08T05:11:14.394Z,29.57
2018-06-08T05:13:41.676Z,32.77
2018-06-08T05:16:08.953Z,32.00
2018-06-08T05:18:36.271Z,32.17
2018-06-08T05:21:03.555Z,34.40
2018-06-08T05:23:30.888Z,32.50
2018-06-08T05:25:58.204Z,32.53
2018-06-08T05:28:25.546Z,33.67
2018-06-08T05:30:52.800Z,30.97
2018-06-08T05:33:20.252Z,31.60
2018-06-08T05:35:47.597Z,31.03
2018-06-08T05:38:14.907Z,32.80
2018-06-08T05:40:42.239Z,32.27
2018-06-08T05:43:09.521Z,33.50
2018-06-08T05:45:36.914Z,34.00
2018-06-08T05:48:04.347Z,33.13
2018-06-08T05:50:31.646Z,32.37
2018-06-08T05:52:59.022Z,33.43
2018-06-08T05:55:26.382Z,33.63
2018-06-08T05:57:53.688Z,34.27
2018-06-08T06:00:21.293Z,32.13
2018-06-08T06:02:48.534Z,32.53
2018-06-08T06:05:15.788Z,32.90
2018-06-08T06:07:43.110Z,33.13
2018-06-08T06:10:10.486Z,35.37
2018-06-08T06:12:37.875Z,30.03
2018-06-08T06:15:05.190Z,34.20
2018-06-08T06:17:32.496Z,29.97
2018-06-08T06:19:59.875Z,34.30
2018-06-08T06:22:27.138Z,31.10
2018-06-08T06:24:54.478Z,34.17
2018-06-08T06:27:21.781Z,31.80
2018-06-08T06:29:49.049Z,29.53
2018-06-08T06:32:16.399Z,29.03
2018-06-08T06:34:43.726Z,29.37
2018-06-08T06:37:11.066Z,28.83
2018-06-08T06:39:38.380Z,26.77
2018-06-08T06:42:06.767Z,29.30
2018-06-08T06:44:35.581Z,30.10
2018-06-08T06:47:13.337Z,31.33
2018-06-08T06:49:40.979Z,27.83
2018-06-08T06:52:08.251Z,30.33
2018-06-08T06:54:35.562Z,30.33
2018-06-08T06:57:02.854Z,28.43
2018-06-08T06:59:30.105Z,30.60
2018-06-08T07:01:57.389Z,26.93
2018-06-08T07:04:24.672Z,28.73
2018-06-08T07:06:52.126Z,26.93
2018-06-08T07:09:19.431Z,26.43
2018-06-08T07:11:46.838Z,23.23
2018-06-08T07:14:14.136Z,21.20
2018-06-08T07:16:41.472Z,21.00
2018-06-08T07:19:08.833Z,25.83
2018-06-08T07:21:36.181Z,29.97
2018-06-08T07:24:03.484Z,27.43
2018-06-08T07:26:30.842Z,26.03
2018-06-08T07:28:58.122Z,27.63
2018-06-08T07:31:25.475Z,27.93
2018-06-08T07:33:52.794Z,23.80
2018-06-08T07:36:20.155Z,24.13
2018-06-08T07:38:47.481Z,22.03
2018-06-08T07:41:14.904Z,26.73
2018-06-08T07:43:42.179Z,30.30
2018-06-08T07:46:09.466Z,29.07
2018-06-08T07:48:36.717Z,26.20
2018-06-08T07:51:04.030Z,26.13
2018-06-08T07:53:31.335Z,25.93
2018-06-08T07:55:58.674Z,23.47
2018-06-08T07:58:25.947Z,21.93
2018-06-08T08:00:53.240Z,20.30
2018-06-08T08:03:20.563Z,20.33
2018-06-08T08:05:47.848Z,21.27
2018-06-08T08:08:15.292Z,24.70
2018-06-08T08:10:42.590Z,23.67
2018-06-08T08:13:09.860Z,21.97
2018-06-08T08:15:37.439Z,21.90
2018-06-08T08:18:04.729Z,22.37
2018-06-08T08:20:32.009Z,22.30
2018-06-08T08:22:59.429Z,20.73
2018-06-08T08:25:26.707Z,21.53
2018-06-08T08:27:54.076Z,20.57
2018-06-08T08:30:21.427Z,21.03
2018-06-08T08:32:48.861Z,19.00
2018-06-08T08:35:16.221Z,20.50
2018-06-08T08:37:43.697Z,19.70
2018-06-08T08:40:10.990Z,20.37
2018-06-08T08:42:38.465Z,20.47
2018-06-08T08:45:05.759Z,21.47
2018-06-08T08:47:33.026Z,21.03
2018-06-08T08:50:00.282Z,22.23
2018-06-08T08:52:27.596Z,21.37
2018-06-08T08:54:54.972Z,20.40
2018-06-08T08:57:22.347Z,19.63
2018-06-08T08:59:50.226Z,18.87
2018-06-08T09:02:17.601Z,18.27
2018-06-08T09:04:44.944Z,18.50
2018-06-08T09:07:12.780Z,18.40
2018-06-08T09:09:40.160Z,17.63
2018-06-08T09:12:07.425Z,17.07
2018-06-08T09:14:34.722Z,16.23
2018-06-08T09:17:01.993Z,13.23
2018-06-08T09:19:29.630Z,13.57
2018-06-08T09:21:57.065Z,16.03
2018-06-08T09:24:24.359Z,18.97
2018-06-08T09:26:51.655Z,16.93
2018-06-08T09:29:18.963Z,16.00
2018-06-08T09:31:46.390Z,16.30
2018-06-08T09:34:13.675Z,17.10
2018-06-08T09:36:40.980Z,15.70
2018-06-08T09:39:08.376Z,15.80
2018-06-08T09:41:35.662Z,17.17
2018-06-08T09:44:02.987Z,15.97
2018-06-08T09:46:30.260Z,16.57
2018-06-08T09:48:57.704Z,14.97
2018-06-08T09:51:25.030Z,15.30
2018-06-08T09:53:52.552Z,15.70
2018-06-08T09:56:19.898Z,14.23
2018-06-08T09:58:47.162Z,14.77
2018-06-08T10:01:14.731Z,15.40
2018-06-08T10:03:42.123Z,14.27
2018-06-08T10:06:10.345Z,13.73
2018-06-08T10:08:37.857Z,13.93
2018-06-08T10:11:05.314Z,14.00
2018-06-08T10:13:33.354Z,14.90
2018-06-08T10:16:00.859Z,12.93
2018-06-08T10:18:28.297Z,13.57
2018-06-08T10:20:55.627Z,13.53
2018-06-08T10:23:23.043Z,14.90
2018-06-08T10:25:50.467Z,12.57
2018-06-08T10:28:18.001Z,12.27
2018-06-08T10:30:46.372Z,12.80
2018-06-08T10:33:13.647Z,13.07
2018-06-08T10:35:41.237Z,13.83
2018-06-08T10:38:08.546Z,13.47
2018-06-08T10:43:20.815Z,12.83
2018-06-08T10:45:48.136Z,12.97
2018-06-08T10:48:15.398Z,15.50
2018-06-08T10:50:42.733Z,15.73
2018-06-08T10:53:10.001Z,14.97
2018-06-08T10:55:37.324Z,14.57
2018-06-08T10:58:04.710Z,14.43
2018-06-08T11:00:32.002Z,14.60
2018-06-08T11:02:59.319Z,15.17
2018-06-08T11:05:26.707Z,12.90
2018-06-08T11:07:54.005Z,11.93
2018-06-08T11:10:21.289Z,11.57
2018-06-08T11:12:48.653Z,11.53
2018-06-08T11:15:16.094Z,12.05
2018-06-08T11:17:43.466Z,12.50
2018-06-08T11:20:11.806Z,12.47
2018-06-08T11:22:40.796Z,12.50
2018-06-08T11:25:10.783Z,13.37
2018-06-08T11:27:38.492Z,11.00
2018-06-08T11:30:06.266Z,10.03
2018-06-08T11:32:36.044Z,10.87
2018-06-08T11:35:03.326Z,10.40
2018-06-08T11:37:30.692Z,10.88
2018-06-08T11:39:58.045Z,9.23
2018-06-08T11:42:26.590Z,10.43
2018-06-08T11:44:54.539Z,10.07
2018-06-08T11:47:22.201Z,11.43
2018-06-08T11:49:49.517Z,9.95
2018-06-08T11:52:16.922Z,10.13
2018-06-08T11:54:44.196Z,9.55
2018-06-08T11:57:11.632Z,8.25
2018-06-08T11:59:39.016Z,9.40
2018-06-08T12:02:06.493Z,8.73
2018-06-08T12:04:34.000Z,7.45
2018-06-08T12:07:01.439Z,8.58
2018-06-08T12:09:29.075Z,7.70
2018-06-08T12:11:56.377Z,6.62
2018-06-08T12:14:23.840Z,6.50
2018-06-08T12:16:51.138Z,6.30
2018-06-08T12:19:18.448Z,7.17
2018-06-08T12:21:46.064Z,6.17
2018-06-08T12:24:14.394Z,6.30
2018-06-08T12:26:41.689Z,6.87
2018-06-08T12:29:08.974Z,6.90
2018-06-08T12:31:36.270Z,6.85
2018-06-08T12:34:03.558Z,6.87
2018-06-08T12:36:30.869Z,7.12
2018-06-08T12:38:58.351Z,7.50
2018-06-08T12:41:25.680Z,6.75
2018-06-08T12:43:52.997Z,6.92
2018-06-08T12:46:20.353Z,6.45
2018-06-08T12:48:48.377Z,6.42
2018-06-08T12:51:16.307Z,6.10
2018-06-08T12:53:44.216Z,5.60
2018-06-08T12:56:11.726Z,5.67
2018-06-08T12:58:39.036Z,5.08
2018-06-08T13:01:06.616Z,5.53
2018-06-08T13:03:33.922Z,5.03
2018-06-08T13:06:01.277Z,6.97
2018-06-08T13:08:28.648Z,6.72
2018-06-08T13:10:56.045Z,5.60
2018-06-08T13:13:23.337Z,5.65
2018-06-08T13:15:50.772Z,5.72
2018-06-08T13:18:18.130Z,5.20
2018-06-08T13:20:45.403Z,5.20
2018-06-08T13:23:12.729Z,5.62
2018-06-08T13:25:40.049Z,5.62
2018-06-08T13:28:07.406Z,5.97
2018-06-08T13:30:34.816Z,5.40
2018-06-08T13:33:02.310Z,5.95
2018-06-08T13:35:29.701Z,5.92
2018-06-08T13:37:57.350Z,4.80
2018-06-08T13:40:24.650Z,5.25
2018-06-08T13:42:52.311Z,4.83
2018-06-08T13:45:19.667Z,4.53
2018-06-08T13:47:47.072Z,5.08
2018-06-08T13:50:14.582Z,5.22
2018-06-08T13:52:41.908Z,5.60
2018-06-08T13:55:09.266Z,5.08
2018-06-08T13:57:37.161Z,4.80
2018-06-08T14:00:04.463Z,9.45
2018-06-08T14:02:31.878Z,9.28
2018-06-08T14:04:59.423Z,7.25
2018-06-08T14:07:26.764Z,5.75
2018-06-08T14:09:54.453Z,6.10
2018-06-08T14:12:21.910Z,4.87
2018-06-08T14:14:51.146Z,5.62
2018-06-08T14:17:18.820Z,5.53
2018-06-08T14:19:46.705Z,5.87
2018-06-08T14:22:14.380Z,5.05
2018-06-08T14:24:41.792Z,4.92
2018-06-08T14:27:09.120Z,5.90
2018-06-08T14:29:36.405Z,5.70
2018-06-08T14:32:03.763Z,4.50
2018-06-08T14:34:31.305Z,4.30
2018-06-08T14:36:58.745Z,4.20
2018-06-08T14:39:26.259Z,4.17
2018-06-08T14:41:53.653Z,4.70
2018-06-08T14:44:21.106Z,4.87
2018-06-08T14:46:48.693Z,5.58
2018-06-08T14:49:16.949Z,6.47
2018-06-08T14:51:44.670Z,5.17
2018-06-08T14:54:12.267Z,4.65
2018-06-08T14:56:39.714Z,8.15
2018-06-08T14:59:07.156Z,6.00
2018-06-08T15:01:34.996Z,8.80
2018-06-08T15:04:02.355Z,6.42
2018-06-08T15:06:29.748Z,4.47
2018-06-08T15:08:58.127Z,8.08
2018-06-08T15:11:25.674Z,6.85
2018-06-08T15:13:53.049Z,5.42
2018-06-08T15:16:20.424Z,7.60
2018-06-08T15:18:47.783Z,5.80
2018-06-08T15:21:15.102Z,6.30
2018-06-08T15:23:42.995Z,4.92
2018-06-08T15:26:11.120Z,9.43
2018-06-08T15:28:38.471Z,5.50
2018-06-08T15:31:05.754Z,4.40
2018-06-08T15:33:33.166Z,4.55
2018-06-08T15:36:01.143Z,4.78
2018-06-08T15:38:28.848Z,4.58
2018-06-08T15:40:56.462Z,4.00
2018-06-08T15:43:23.780Z,5.40
2018-06-08T15:45:51.180Z,5.12
2018-06-08T16:01:23.922Z,5.75
2018-06-08T16:03:51.806Z,5.43
2018-06-08T16:06:19.468Z,5.80
2018-06-08T16:08:46.826Z,7.53
2018-06-08T16:11:14.466Z,12.03
2018-06-08T16:13:41.960Z,12.83
2018-06-08T16:16:09.433Z,27.80
2018-06-08T16:18:36.769Z,32.97
2018-06-08T16:21:04.171Z,9.35
2018-06-08T16:23:31.487Z,7.10
2018-06-08T16:26:05.193Z,5.62
2018-06-08T16:28:33.215Z,4.95
2018-06-08T16:31:01.988Z,5.70
2018-06-08T16:33:36.969Z,4.30
2018-06-08T16:36:09.864Z,4.30
2018-06-08T16:38:37.207Z,4.42
2018-06-08T16:41:04.624Z,3.90
2018-06-08T16:43:32.076Z,3.92
2018-06-08T16:46:02.532Z,4.40
2018-06-08T16:48:39.367Z,4.27
2018-06-08T16:51:08.579Z,4.67
2018-06-08T16:53:37.055Z,4.60
2018-06-08T16:56:05.549Z,4.67
2018-06-08T16:58:32.941Z,4.55
2018-06-08T17:01:00.582Z,5.03
2018-06-08T17:03:27.976Z,6.67
2018-06-08T17:05:55.536Z,6.75
2018-06-08T17:08:23.152Z,4.20
2018-06-08T17:10:53.958Z,4.50
2018-06-08T17:13:21.559Z,4.17
2018-06-08T17:15:49.553Z,5.07
2018-06-08T17:18:16.945Z,30.00
2018-06-08T17:20:44.555Z,38.77
2018-06-08T17:23:12.093Z,22.10
2018-06-08T17:25:40.889Z,7.30
2018-06-08T17:28:08.265Z,5.60
2018-06-08T17:30:35.822Z,5.30
2018-06-08T17:33:03.286Z,5.67
2018-06-08T17:35:31.311Z,5.23
2018-06-08T17:37:58.771Z,6.53
2018-06-08T17:40:26.226Z,4.60
2018-06-08T17:42:54.220Z,5.67
2018-06-08T17:45:22.399Z,4.90
2018-06-08T17:47:50.909Z,5.73
2018-06-08T17:50:18.893Z,4.80
2018-06-08T17:52:46.388Z,4.80
2018-06-08T17:55:15.418Z,8.67
2018-06-08T17:57:43.178Z,18.57
2018-06-08T18:00:12.608Z,31.77
2018-06-08T18:02:40.022Z,6.00
2018-06-08T18:05:09.102Z,6.20
2018-06-08T18:07:37.907Z,8.27
2018-06-08T18:10:05.878Z,8.07
2018-06-08T18:12:36.130Z,8.67
2018-06-08T18:15:04.114Z,6.10
2018-06-08T18:17:34.138Z,6.47
2018-06-08T18:20:01.820Z,6.33
2018-06-08T18:22:32.554Z,5.00
2018-06-08T18:25:00.604Z,5.47
2018-06-08T18:27:28.728Z,5.00
2018-06-08T18:29:56.171Z,4.73
2018-06-08T18:32:23.830Z,4.97
2018-06-08T18:34:51.317Z,4.83
2018-06-08T18:37:23.815Z,5.37
2018-06-08T18:39:54.885Z,5.00
2018-06-08T18:42:22.304Z,4.97
2018-06-08T18:44:51.215Z,5.90
2018-06-08T18:50:13.462Z,5.97
2018-06-08T18:52:43.442Z,6.57
2018-06-08T18:55:11.851Z,6.20
2018-06-08T18:57:39.504Z,5.63
2018-06-08T19:00:07.816Z,5.13
2018-06-08T19:02:35.854Z,4.17
2018-06-08T19:05:04.380Z,3.47
2018-06-08T19:07:32.365Z,3.40
2018-06-08T19:10:01.738Z,3.17
2018-06-08T19:12:29.609Z,3.33
2018-06-08T19:14:57.499Z,3.50
2018-06-08T19:17:24.981Z,3.43
2018-06-08T19:19:52.959Z,3.10
2018-06-08T19:22:20.512Z,3.40
2018-06-08T19:24:50.370Z,3.43
2018-06-08T19:27:17.840Z,3.50
2018-06-08T19:29:45.210Z,3.40
2018-06-08T19:32:12.504Z,3.87
2018-06-08T19:34:42.568Z,3.80
2018-06-08T19:37:11.824Z,3.87
2018-06-08T19:39:40.946Z,3.37
2018-06-08T19:42:08.626Z,4.40
2018-06-08T19:44:35.890Z,3.43
2018-06-08T19:47:04.974Z,3.90
2018-06-08T19:49:33.150Z,4.70
2018-06-08T19:52:00.987Z,4.80
2018-06-08T19:54:28.555Z,4.80
2018-06-08T19:56:56.689Z,5.50
2018-06-08T19:59:24.874Z,5.43
2018-06-08T20:01:52.845Z,5.77
2018-06-08T20:04:20.298Z,5.83
2018-06-08T20:06:49.163Z,5.77
2018-06-08T20:09:16.764Z,5.43
2018-06-08T20:11:44.222Z,6.37
2018-06-08T20:14:11.762Z,6.00
2018-06-08T20:16:39.847Z,5.30
2018-06-08T20:19:07.491Z,5.00
2018-06-08T20:21:35.260Z,5.23
2018-06-08T20:24:06.537Z,5.43
2018-06-08T20:26:46.068Z,5.37
2018-06-08T20:29:16.915Z,5.43
2018-06-08T20:31:49.113Z,5.50
2018-06-08T20:34:21.010Z,4.10
2018-06-08T20:36:48.590Z,5.10
2018-06-08T20:39:27.952Z,4.77
2018-06-08T20:41:55.715Z,4.17
2018-06-08T20:44:24.063Z,3.97
2018-06-08T20:46:51.795Z,3.70
2018-06-08T20:49:22.034Z,4.23
2018-06-08T20:51:50.488Z,3.60
2018-06-08T20:54:19.314Z,4.13
2018-06-08T20:56:57.034Z,4.10
2018-06-08T20:59:26.606Z,4.43
2018-06-08T21:01:54.470Z,4.10
2018-06-08T21:04:22.841Z,4.10
2018-06-08T21:06:51.076Z,4.33
2018-06-08T21:09:18.695Z,4.63
2018-06-08T21:11:46.201Z,4.43
2018-06-08T21:14:15.975Z,4.47
2018-06-08T21:16:45.471Z,4.07
2018-06-08T21:19:20.409Z,4.57
2018-06-08T21:21:49.836Z,4.57
2018-06-08T21:24:22.431Z,4.47
2018-06-08T21:26:56.136Z,4.23
2018-06-08T21:29:24.779Z,4.63
2018-06-08T21:31:52.227Z,4.37
2018-06-08T21:34:19.673Z,4.40
2018-06-08T21:36:47.074Z,4.37
2018-06-08T21:39:15.384Z,4.37
2018-06-08T21:41:42.847Z,4.70
2018-06-08T21:44:10.972Z,3.87
2018-06-08T21:46:38.413Z,4.00
2018-06-08T21:49:05.809Z,4.33
2018-06-08T21:51:33.211Z,4.20
2018-06-08T21:54:00.598Z,4.30
2018-06-08T21:56:28.138Z,4.53
2018-06-08T21:58:55.976Z,4.50
2018-06-08T22:01:24.028Z,4.60
2018-06-08T22:03:51.642Z,4.90
2018-06-08T22:06:19.235Z,4.67
2018-06-08T22:08:46.649Z,4.83
2018-06-08T22:11:14.061Z,5.33
2018-06-08T22:13:44.251Z,4.80
2018-06-08T22:16:11.693Z,4.97
2018-06-08T22:18:39.188Z,4.70
2018-06-08T22:21:06.572Z,4.60
2018-06-08T22:23:34.302Z,4.93
2018-06-08T22:26:01.872Z,4.80
2018-06-08T22:28:29.502Z,5.33
2018-06-08T22:30:56.831Z,5.93
2018-06-08T22:33:24.723Z,5.33
2018-06-08T22:35:52.105Z,4.93
2018-06-08T22:38:20.013Z,4.87
2018-06-08T22:40:47.650Z,4.73
2018-06-08T22:43:15.166Z,4.80
2018-06-08T22:45:42.826Z,5.37
2018-06-08T22:48:16.874Z,5.07
2018-06-08T22:50:44.524Z,4.90
2018-06-08T22:53:12.642Z,5.53
2018-06-08T22:55:42.610Z,5.00
2018-06-08T22:58:10.862Z,4.83
2018-06-08T23:00:43.493Z,4.73
2018-06-08T23:03:10.891Z,5.17
2018-06-08T23:05:39.481Z,5.03
2018-06-08T23:08:06.824Z,5.10
2018-06-08T23:10:35.810Z,4.53
2018-06-08T23:13:05.411Z,4.43
2018-06-08T23:15:34.828Z,4.27
2018-06-08T23:18:04.626Z,5.07
2018-06-08T23:20:32.204Z,4.63
2018-06-08T23:22:59.634Z,5.10
2018-06-08T23:25:28.382Z,4.30
2018-06-08T23:27:56.086Z,4.23
2018-06-08T23:30:23.788Z,3.83
2018-06-08T23:32:51.035Z,4.47
2018-06-08T23:35:18.499Z,4.33
2018-06-08T23:37:45.794Z,4.50
2018-06-08T23:40:13.212Z,4.87
2018-06-08T23:42:40.554Z,5.27
2018-06-08T23:45:07.893Z,4.10
2018-06-08T23:47:39.637Z,4.40
2018-06-08T23:50:13.617Z,4.20
2018-06-08T23:52:41.872Z,4.70
2018-06-08T23:55:14.189Z,4.37
2018-06-08T23:57:41.744Z,4.67
